Time;durP1;ratioP1;P1;durP2;ratioP2;P2;SDS_P1;SDS_P2;PMS_P1;PMS_P2;Temp;Humidity;BMP_temperature;BMP_pressure;BME280_temperature;BME280_humidity;BME280_pressure;Samples;Min_cycle;Max_cycle;Signal;HPM_P1;HPM_P2
2021/12/01 00:03:06;;;;;;;2.37;1.10;;;6.70;99.90;;;;;;10428353;28;20255;-71
2021/12/01 00:08:07;;;;;;;1.20;1.10;;;6.70;99.90;;;;;;10425628;28;20225;-72
2021/12/01 00:13:12;;;;;;;1.57;1.43;;;6.70;99.90;;;;;;10412961;28;20300;-70
2021/12/01 00:18:14;;;;;;;2.23;1.60;;;6.60;99.90;;;;;;10456521;28;20228;-68
2021/12/01 00:23:15;;;;;;;1.37;1.27;;;6.40;99.90;;;;;;10457259;28;20692;-69
2021/12/01 00:28:16;;;;;;;1.50;1.40;;;6.40;99.90;;;;;;10441752;28;20268;-69
2021/12/01 00:33:18;;;;;;;3.07;1.57;;;6.30;99.90;;;;;;10448580;28;20249;-69
2021/12/01 00:38:18;;;;;;;1.43;1.27;;;6.30;99.90;;;;;;10421036;28;20224;-69
2021/12/01 00:43:20;;;;;;;2.10;1.60;;;6.30;99.90;;;;;;10465907;28;20870;-70
2021/12/01 00:48:21;;;;;;;2.47;1.70;;;6.30;99.90;;;;;;10418121;28;20232;-69
2021/12/01 00:53:22;;;;;;;2.00;1.80;;;6.30;99.90;;;;;;10418581;28;20216;-70
2021/12/01 00:58:23;;;;;;;2.03;1.60;;;6.30;99.90;;;;;;10429861;28;20220;-70
2021/12/01 01:03:28;;;;;;;3.70;1.70;;;6.30;99.90;;;;;;10434127;28;20255;-70
2021/12/01 01:08:28;;;;;;;4.57;2.20;;;6.30;99.90;;;;;;10422753;28;20216;-69
2021/12/01 01:19:04;;;;;;;2.50;1.47;;;6.20;99.90;;;;;;10433333;28;20299;-70
2021/12/01 01:24:05;;;;;;;1.73;1.63;;;6.10;99.90;;;;;;10421566;28;20220;-69
2021/12/01 01:29:06;;;;;;;2.33;2.20;;;6.10;99.90;;;;;;10425974;28;20223;-69
2021/12/01 01:34:07;;;;;;;3.00;2.50;;;6.10;99.90;;;;;;10426974;28;20211;-70
2021/12/01 01:39:08;;;;;;;2.40;2.20;;;6.10;99.90;;;;;;10411854;28;20216;-68
2021/12/01 01:44:09;;;;;;;2.13;1.93;;;6.10;99.90;;;;;;10446005;28;20711;-70
2021/12/01 01:49:16;;;;;;;2.40;2.23;;;6.00;99.90;;;;;;10429562;28;20224;-69
2021/12/01 01:54:17;;;;;;;2.27;2.07;;;6.00;99.90;;;;;;10420760;28;20217;-69
2021/12/01 01:59:18;;;;;;;2.57;2.30;;;6.00;99.90;;;;;;10458564;28;20250;-69
2021/12/01 02:04:19;;;;;;;3.07;2.80;;;6.00;99.90;;;;;;10411006;28;20213;-70
2021/12/01 02:09:22;;;;;;;3.00;2.80;;;6.00;99.90;;;;;;10448885;28;20303;-69
2021/12/01 02:14:24;;;;;;;3.43;3.13;;;6.00;99.90;;;;;;10424270;28;20225;-70
2021/12/01 02:19:25;;;;;;;4.47;3.23;;;5.90;99.90;;;;;;10412681;28;20287;-71
2021/12/01 02:24:26;;;;;;;4.40;4.00;;;5.90;99.90;;;;;;10422406;28;20209;-70
2021/12/01 02:29:27;;;;;;;5.60;5.03;;;5.90;99.90;;;;;;10415854;28;20220;-69
2021/12/01 02:34:35;;;;;;;5.40;4.90;;;5.80;99.90;;;;;;10448329;28;20220;-70
2021/12/01 02:39:36;;;;;;;5.60;5.10;;;5.70;99.90;;;;;;10421283;28;20243;-69
2021/12/01 02:44:37;;;;;;;5.93;5.30;;;5.70;99.90;;;;;;10445387;28;20248;-71
2021/12/01 02:49:38;;;;;;;5.00;4.57;;;5.70;99.90;;;;;;10412085;28;20275;-70
2021/12/01 02:54:39;;;;;;;6.30;4.73;;;5.70;99.90;;;;;;10415349;28;20650;-70
2021/12/01 02:59:41;;;;;;;5.00;4.50;;;5.80;99.90;;;;;;10426111;28;20208;-70
2021/12/01 03:04:41;;;;;;;4.70;3.93;;;5.80;99.90;;;;;;10433573;28;20296;-70
2021/12/01 03:09:42;;;;;;;5.03;4.00;;;5.80;99.90;;;;;;10455409;28;20602;-69
2021/12/01 03:14:44;;;;;;;4.50;3.80;;;5.80;99.90;;;;;;10429458;28;20245;-69
2021/12/01 03:19:45;;;;;;;4.87;3.97;;;5.80;99.90;;;;;;10468147;28;20292;-70
2021/12/01 03:24:46;;;;;;;5.53;4.00;;;5.80;99.90;;;;;;10427206;28;20302;-70
2021/12/01 03:29:49;;;;;;;4.67;4.20;;;5.90;99.90;;;;;;10434352;28;20315;-70
2021/12/01 03:34:50;;;;;;;4.47;4.07;;;5.90;99.90;;;;;;10421446;28;20274;-70
2021/12/01 03:39:51;;;;;;;5.47;3.90;;;5.90;99.90;;;;;;10417629;28;20255;-69
2021/12/01 03:44:53;;;;;;;4.17;3.80;;;5.90;99.90;;;;;;10440200;28;20254;-69
2021/12/01 03:49:54;;;;;;;5.13;3.87;;;5.90;99.90;;;;;;10418156;28;20221;-70
2021/12/01 03:54:55;;;;;;;4.00;3.60;;;5.90;99.90;;;;;;10423841;28;20707;-70
2021/12/01 03:59:56;;;;;;;4.30;3.50;;;6.00;99.90;;;;;;10423351;28;20255;-69
2021/12/01 04:04:56;;;;;;;3.87;3.53;;;6.00;99.90;;;;;;10419404;28;20254;-70
2021/12/01 04:10:00;;;;;;;5.33;3.80;;;6.10;99.90;;;;;;10421452;28;20235;-70
2021/12/01 04:15:02;;;;;;;4.20;3.80;;;6.10;99.90;;;;;;10412735;28;20232;-69
2021/12/01 04:20:03;;;;;;;5.97;4.33;;;6.10;99.90;;;;;;10416346;28;20275;-69
2021/12/01 04:25:08;;;;;;;7.33;4.03;;;6.10;99.90;;;;;;10424516;28;20312;-69
2021/12/01 04:30:15;;;;;;;4.73;3.60;;;6.10;99.90;;;;;;10428999;28;20450;-70
2021/12/01 04:35:23;;;;;;;4.13;3.43;;;6.20;99.90;;;;;;10420890;28;20185;-70
2021/12/01 04:40:24;;;;;;;3.50;3.20;;;6.10;99.90;;;;;;10449679;28;20311;-70
2021/12/01 04:45:27;;;;;;;3.63;3.27;;;6.10;99.90;;;;;;10414409;28;20220;-70
2021/12/01 04:50:28;;;;;;;6.20;3.10;;;6.10;99.90;;;;;;10411363;28;20723;-69
2021/12/01 04:55:29;;;;;;;4.73;3.30;;;6.20;99.90;;;;;;10415319;28;20269;-70
2021/12/01 05:00:34;;;;;;;7.40;3.03;;;6.20;99.90;;;;;;10427182;28;20258;-68
2021/12/01 05:05:35;;;;;;;3.23;2.87;;;6.10;99.90;;;;;;10419866;28;20231;-70
2021/12/01 05:10:36;;;;;;;7.10;3.33;;;6.10;99.90;;;;;;10421852;28;20239;-69
2021/12/01 05:15:37;;;;;;;3.27;2.97;;;6.20;99.90;;;;;;10430377;28;20224;-69
2021/12/01 05:20:39;;;;;;;4.23;2.60;;;6.20;99.90;;;;;;10420609;28;20231;-69
2021/12/01 05:25:39;;;;;;;5.70;2.73;;;6.20;99.90;;;;;;10418637;28;20224;-68
2021/12/01 05:30:40;;;;;;;4.30;2.70;;;6.20;99.90;;;;;;10424410;28;20228;-69
2021/12/01 05:35:48;;;;;;;2.77;2.57;;;6.20;99.90;;;;;;10423780;28;20220;-69
2021/12/01 05:40:50;;;;;;;4.50;2.97;;;6.30;99.90;;;;;;10420199;28;20224;-68
2021/12/01 05:45:51;;;;;;;3.20;2.80;;;6.30;99.90;;;;;;10420621;28;20231;-69
2021/12/01 05:50:51;;;;;;;3.67;3.07;;;6.30;99.90;;;;;;10428309;28;20267;-68
2021/12/01 05:55:52;;;;;;;6.00;2.93;;;6.30;99.90;;;;;;10414467;28;20634;-69
2021/12/01 06:00:53;;;;;;;3.50;3.17;;;6.30;99.90;;;;;;10422284;28;20297;-69
2021/12/01 06:05:54;;;;;;;13.07;6.40;;;6.30;99.90;;;;;;10423141;28;20232;-69
2021/12/01 06:10:55;;;;;;;4.57;3.80;;;6.30;99.90;;;;;;10414600;28;20323;-68
2021/12/01 06:15:59;;;;;;;3.73;2.80;;;6.30;99.90;;;;;;10415935;28;20307;-68
2021/12/01 06:21:00;;;;;;;5.83;2.80;;;6.40;99.90;;;;;;10433773;28;20729;-69
2021/12/01 06:26:01;;;;;;;4.50;2.70;;;6.40;99.90;;;;;;10422004;28;20226;-71
2021/12/01 06:31:01;;;;;;;4.00;2.57;;;6.40;99.90;;;;;;10409375;28;20228;-68
2021/12/01 06:36:03;;;;;;;4.30;1.97;;;6.40;99.90;;;;;;10429165;28;20255;-67
2021/12/01 06:41:04;;;;;;;2.67;1.67;;;6.50;99.90;;;;;;10415530;28;20228;-68
2021/12/01 06:46:05;;;;;;;2.60;1.80;;;6.70;99.90;;;;;;10445763;28;20216;-70
2021/12/01 06:51:08;;;;;;;2.77;1.60;;;6.70;99.90;;;;;;10435941;28;20231;-68
2021/12/01 06:56:09;;;;;;;2.17;1.67;;;6.90;99.90;;;;;;10432155;28;20247;-68
2021/12/01 07:01:10;;;;;;;1.73;1.33;;;7.00;99.90;;;;;;10439123;28;20228;-68
2021/12/01 07:06:11;;;;;;;2.47;1.60;;;7.00;99.90;;;;;;10438397;28;20691;-68
2021/12/01 07:11:11;;;;;;;1.50;1.10;;;7.00;99.90;;;;;;10446496;28;20220;-67
2021/12/01 07:16:12;;;;;;;1.43;1.33;;;7.10;99.90;;;;;;10457321;28;20224;-67
2021/12/01 07:21:13;;;;;;;3.97;1.60;;;7.10;99.90;;;;;;10457530;28;20246;-67
2021/12/01 07:26:13;;;;;;;4.00;1.70;;;7.10;99.90;;;;;;10447877;28;20234;-68
2021/12/01 07:31:14;;;;;;;2.10;1.40;;;7.10;99.90;;;;;;10447316;28;20235;-69
2021/12/01 07:36:16;;;;;;;4.27;1.50;;;7.00;99.90;;;;;;10436964;28;20224;-68
2021/12/01 07:41:17;;;;;;;2.67;1.50;;;6.90;99.90;;;;;;10435752;28;20838;-68
2021/12/01 07:46:18;;;;;;;1.83;1.27;;;6.80;99.90;;;;;;10432595;28;20302;-68
2021/12/01 07:51:18;;;;;;;1.73;1.20;;;6.80;99.90;;;;;;10444265;28;20232;-67
2021/12/01 07:56:19;;;;;;;3.87;1.20;;;6.70;99.90;;;;;;10444892;28;20234;-68
2021/12/01 08:01:22;;;;;;;1.57;1.40;;;6.70;99.90;;;;;;10421691;28;20228;-67
2021/12/01 08:06:25;;;;;;;1.97;1.37;;;6.80;99.90;;;;;;10431545;28;20232;-71
2021/12/01 08:11:26;;;;;;;2.43;1.43;;;6.80;99.90;;;;;;10426547;28;20612;-68
2021/12/01 08:16:27;;;;;;;2.50;1.40;;;6.90;99.90;;;;;;10440875;28;20315;-68
2021/12/01 08:21:28;;;;;;;1.70;1.33;;;7.00;99.90;;;;;;10455487;28;20386;-69
2021/12/01 08:26:30;;;;;;;1.40;1.20;;;7.10;99.90;;;;;;10438201;28;20288;-67
2021/12/01 08:31:31;;;;;;;1.10;1.00;;;7.10;99.90;;;;;;10431550;28;20473;-68
2021/12/01 08:36:32;;;;;;;2.43;1.30;;;7.10;99.90;;;;;;10418173;28;20229;-68
2021/12/01 08:41:33;;;;;;;2.40;1.33;;;7.20;99.90;;;;;;10427823;28;20216;-68
2021/12/01 08:46:33;;;;;;;1.60;1.20;;;7.10;99.90;;;;;;10425819;28;20227;-68
2021/12/01 08:51:35;;;;;;;1.63;1.20;;;7.20;99.90;;;;;;10413173;28;20361;-67
2021/12/01 08:56:36;;;;;;;2.53;1.53;;;7.20;99.90;;;;;;10427588;28;20226;-68
2021/12/01 09:01:37;;;;;;;1.67;1.20;;;7.20;99.90;;;;;;10415230;28;20223;-67
2021/12/01 09:06:37;;;;;;;1.87;1.20;;;7.20;99.90;;;;;;10418329;28;20286;-67
2021/12/01 09:11:38;;;;;;;1.30;1.00;;;7.30;99.90;;;;;;10426178;28;20233;-67
2021/12/01 09:16:41;;;;;;;0.90;0.90;;;7.30;99.90;;;;;;10422144;28;20231;-68
2021/12/01 09:21:41;;;;;;;2.60;0.90;;;7.30;99.90;;;;;;10463104;28;20218;-67
2021/12/01 09:26:43;;;;;;;1.20;0.87;;;7.40;99.90;;;;;;10428917;28;20227;-67
2021/12/01 09:31:43;;;;;;;1.80;1.07;;;7.40;99.90;;;;;;10430007;28;20255;-67
2021/12/01 09:36:44;;;;;;;2.17;1.10;;;7.50;99.90;;;;;;10428811;28;20244;-68
2021/12/01 09:41:45;;;;;;;1.90;0.93;;;7.70;99.90;;;;;;10433426;28;20339;-68
2021/12/01 09:46:46;;;;;;;1.80;1.07;;;7.80;99.90;;;;;;10429866;28;20274;-68
2021/12/01 09:51:46;;;;;;;1.87;1.17;;;7.80;99.90;;;;;;10437512;28;20226;-68
2021/12/01 09:56:47;;;;;;;2.07;1.13;;;7.80;99.90;;;;;;10425995;28;20217;-67
2021/12/01 10:01:48;;;;;;;1.00;0.90;;;7.70;99.90;;;;;;10426864;28;20331;-67
2021/12/01 10:06:48;;;;;;;2.17;1.00;;;7.70;99.90;;;;;;10432859;28;20261;-68
2021/12/01 10:11:49;;;;;;;1.33;1.10;;;7.80;99.90;;;;;;10435104;28;20228;-68
2021/12/01 10:16:54;;;;;;;1.37;1.03;;;7.90;99.90;;;;;;10467914;28;20595;-68
2021/12/01 10:21:59;;;;;;;1.73;1.20;;;7.90;99.90;;;;;;10433418;28;20463;-68
2021/12/01 10:27:02;;;;;;;1.27;1.00;;;7.90;99.90;;;;;;10431491;28;20218;-68
2021/12/01 10:32:09;;;;;;;1.87;1.13;;;7.90;99.90;;;;;;10460562;28;20578;-68
2021/12/01 10:37:09;;;;;;;1.17;0.80;;;8.00;99.90;;;;;;10437058;28;20216;-67
2021/12/01 10:42:14;;;;;;;1.17;0.87;;;8.00;99.90;;;;;;10431011;28;20217;-68
2021/12/01 10:47:15;;;;;;;3.53;0.90;;;8.00;99.90;;;;;;10431861;28;20220;-67
2021/12/01 10:52:33;;;;;;;1.30;1.00;;;8.00;99.90;;;;;;10468061;28;20224;-68
2021/12/01 10:57:49;;;;;;;2.13;0.70;;;8.00;99.90;;;;;;10446634;28;20238;-69
2021/12/01 11:03:05;;;;;;;11.00;1.00;;;8.00;99.90;;;;;;10442361;28;20722;-68
2021/12/01 11:08:29;;;;;;;0.97;0.93;;;8.10;99.90;;;;;;10440009;28;20227;-67
2021/12/01 11:13:30;;;;;;;2.17;0.70;;;8.10;99.90;;;;;;10444357;28;20214;-68
2021/12/01 11:18:33;;;;;;;2.80;1.10;;;8.20;99.90;;;;;;10446556;28;20214;-67
2021/12/01 11:23:37;;;;;;;1.27;0.70;;;8.30;99.90;;;;;;10443998;28;20227;-67
2021/12/01 11:28:51;;;;;;;1.17;0.80;;;8.50;99.90;;;;;;10442152;28;20279;-68
2021/12/01 11:33:56;;;;;;;0.87;0.80;;;8.60;99.90;;;;;;10444020;28;20218;-68
2021/12/01 11:38:59;;;;;;;1.33;0.80;;;8.70;99.90;;;;;;10443871;28;20210;-69
2021/12/01 11:44:03;;;;;;;1.00;0.77;;;8.80;99.90;;;;;;10442008;28;20248;-68
2021/12/01 11:49:09;;;;;;;0.73;0.60;;;8.80;99.90;;;;;;10452086;28;20226;-68
2021/12/01 11:54:16;;;;;;;1.43;0.77;;;8.80;99.90;;;;;;10448774;28;20300;-69
2021/12/01 11:59:16;;;;;;;0.60;0.47;;;8.80;99.90;;;;;;10456630;28;20598;-69
2021/12/01 12:04:21;;;;;;;1.80;0.87;;;8.90;99.90;;;;;;10452966;28;20224;-69
2021/12/01 12:09:23;;;;;;;0.77;0.57;;;8.90;99.90;;;;;;10477347;28;20290;-69
2021/12/01 12:14:25;;;;;;;2.07;0.77;;;8.90;99.90;;;;;;10453250;28;20222;-68
2021/12/01 12:19:48;;;;;;;0.70;0.70;;;8.90;99.90;;;;;;10468124;28;20227;-68
2021/12/01 12:24:57;;;;;;;2.13;0.80;;;8.90;99.90;;;;;;10472534;28;20225;-70
2021/12/01 12:29:59;;;;;;;0.63;0.63;;;8.90;99.90;;;;;;10452504;28;20229;-69
2021/12/01 12:35:07;;;;;;;1.30;0.80;;;8.80;99.90;;;;;;10447933;28;20215;-68
2021/12/01 12:40:29;;;;;;;0.97;0.87;;;8.80;99.90;;;;;;10449190;28;20251;-68
2021/12/01 12:45:30;;;;;;;1.27;0.80;;;8.80;99.90;;;;;;10432219;28;20264;-69
2021/12/01 12:50:30;;;;;;;0.87;0.73;;;8.80;99.90;;;;;;10460250;28;20231;-69
2021/12/01 12:55:31;;;;;;;0.80;0.80;;;8.80;99.90;;;;;;10442036;28;20240;-68
2021/12/01 13:00:38;;;;;;;1.23;1.10;;;8.80;99.90;;;;;;10442937;28;20252;-69
2021/12/01 13:05:39;;;;;;;2.30;0.90;;;8.80;99.90;;;;;;10452769;28;20220;-68
2021/12/01 13:10:40;;;;;;;1.30;1.03;;;8.70;99.90;;;;;;10448494;28;20234;-71
2021/12/01 13:15:52;;;;;;;2.17;0.90;;;8.70;99.90;;;;;;10446715;28;20589;-69
2021/12/01 13:20:59;;;;;;;1.20;1.10;;;8.70;99.90;;;;;;10425551;28;20222;-69
2021/12/01 13:26:22;;;;;;;0.97;0.93;;;8.80;99.90;;;;;;10413829;28;20235;-69
2021/12/01 13:31:27;;;;;;;1.07;0.93;;;8.80;99.90;;;;;;10418587;28;20782;-68
2021/12/01 13:36:31;;;;;;;1.07;0.70;;;8.80;99.90;;;;;;10414041;28;20275;-70
2021/12/01 13:41:41;;;;;;;2.00;0.83;;;8.80;99.90;;;;;;10422221;28;20245;-68
2021/12/01 13:46:43;;;;;;;1.73;0.80;;;8.90;99.90;;;;;;10422468;28;20229;-70
2021/12/01 13:51:48;;;;;;;0.77;0.40;;;9.00;99.90;;;;;;10420123;28;20234;-69
2021/12/01 13:56:58;;;;;;;1.23;0.33;;;9.00;99.90;;;;;;10435701;28;20243;-70
2021/12/01 14:01:59;;;;;;;0.20;0.20;;;9.10;99.90;;;;;;10455405;28;20284;-67
2021/12/01 14:07:00;;;;;;;0.37;0.37;;;9.20;99.90;;;;;;10441483;28;20226;-69
2021/12/01 14:12:16;;;;;;;0.53;0.40;;;9.20;99.90;;;;;;10446000;28;20328;-69
2021/12/01 14:17:18;;;;;;;0.80;0.40;;;9.30;99.90;;;;;;10446222;28;20766;-67
2021/12/01 14:22:20;;;;;;;0.30;0.30;;;9.30;99.90;;;;;;10445120;28;20559;-69
2021/12/01 14:27:29;;;;;;;0.60;0.30;;;9.40;99.90;;;;;;10429842;28;20758;-69
2021/12/01 14:32:30;;;;;;;0.50;0.50;;;9.40;99.90;;;;;;10437321;28;20740;-68
2021/12/01 14:37:33;;;;;;;0.77;0.50;;;9.50;99.90;;;;;;10439771;28;20215;-69
2021/12/01 14:42:39;;;;;;;0.50;0.40;;;9.50;99.90;;;;;;10435690;28;20276;-68
2021/12/01 14:47:40;;;;;;;1.67;0.50;;;9.50;99.90;;;;;;10440278;28;20236;-68
2021/12/01 14:52:41;;;;;;;0.90;0.50;;;9.40;99.90;;;;;;10463426;28;20717;-68
2021/12/01 14:57:57;;;;;;;0.60;0.30;;;9.40;99.90;;;;;;10440447;28;20211;-68
2021/12/01 15:03:18;;;;;;;0.50;0.50;;;9.30;99.90;;;;;;10436775;28;20218;-68
2021/12/01 15:08:45;;;;;;;0.83;0.63;;;9.30;99.90;;;;;;10432748;28;20597;-68
2021/12/01 15:13:47;;;;;;;0.40;0.40;;;9.20;99.90;;;;;;10432637;28;20313;-68
2021/12/01 15:18:58;;;;;;;0.87;0.47;;;9.20;99.90;;;;;;10463503;28;20241;-69
2021/12/01 15:24:01;;;;;;;1.47;0.50;;;9.10;99.90;;;;;;10432024;28;20223;-68
2021/12/01 15:29:07;;;;;;;0.40;0.40;;;8.90;99.90;;;;;;10430186;28;20229;-69
2021/12/01 15:34:07;;;;;;;1.30;0.47;;;8.80;99.90;;;;;;10437669;28;20240;-69
2021/12/01 15:39:09;;;;;;;1.47;0.50;;;8.60;99.90;;;;;;10439026;28;20240;-68
2021/12/01 15:44:11;;;;;;;1.77;0.80;;;8.60;99.90;;;;;;10423069;28;20218;-67
2021/12/01 15:49:13;;;;;;;0.77;0.50;;;8.50;99.90;;;;;;10436423;28;20224;-67
2021/12/01 15:54:16;;;;;;;0.40;0.40;;;8.50;99.90;;;;;;10438916;28;20217;-68
2021/12/01 15:59:17;;;;;;;1.53;0.70;;;8.50;99.90;;;;;;10438879;28;20239;-68
2021/12/01 16:04:20;;;;;;;1.47;1.00;;;8.50;99.90;;;;;;10430286;28;20219;-69
2021/12/01 16:09:24;;;;;;;0.90;0.80;;;8.50;99.90;;;;;;10456158;28;20228;-69
2021/12/01 16:14:25;;;;;;;1.13;0.63;;;8.50;99.90;;;;;;10431951;28;20289;-69
2021/12/01 16:19:28;;;;;;;0.63;0.60;;;8.50;99.90;;;;;;10435808;28;20352;-68
2021/12/01 16:24:29;;;;;;;1.20;0.90;;;8.50;99.90;;;;;;10420037;28;20218;-68
2021/12/01 16:29:30;;;;;;;0.73;0.73;;;8.50;99.90;;;;;;10462154;28;20228;-67
2021/12/01 16:34:31;;;;;;;1.17;0.70;;;8.60;99.90;;;;;;10460082;28;20222;-69
2021/12/01 16:39:32;;;;;;;0.90;0.90;;;8.60;99.90;;;;;;10431431;28;20219;-69
2021/12/01 16:44:32;;;;;;;0.70;0.70;;;8.60;99.90;;;;;;10433013;28;20225;-68
2021/12/01 16:49:33;;;;;;;1.00;0.90;;;8.60;99.90;;;;;;10429790;28;20244;-68
2021/12/01 16:54:34;;;;;;;1.37;0.80;;;8.60;99.90;;;;;;10419288;28;20210;-68
2021/12/01 16:59:35;;;;;;;1.10;0.73;;;8.50;99.90;;;;;;10428304;28;20216;-69
2021/12/01 17:04:38;;;;;;;0.80;0.77;;;8.40;99.90;;;;;;10420889;28;20205;-68
2021/12/01 17:09:40;;;;;;;1.40;1.03;;;8.20;99.90;;;;;;10419385;28;20705;-68
2021/12/01 17:14:44;;;;;;;1.07;0.90;;;8.10;99.90;;;;;;10416259;28;20244;-68
2021/12/01 17:19:45;;;;;;;0.77;0.50;;;7.90;99.90;;;;;;10420519;28;20297;-68
2021/12/01 17:24:46;;;;;;;0.73;0.73;;;7.90;99.90;;;;;;10418211;28;20312;-68
2021/12/01 17:29:47;;;;;;;0.60;0.60;;;7.80;99.90;;;;;;10415990;28;20224;-68
2021/12/01 17:34:49;;;;;;;0.80;0.80;;;7.70;99.90;;;;;;10415875;28;20216;-68
2021/12/01 17:39:50;;;;;;;0.77;0.60;;;7.70;99.90;;;;;;10429558;28;20798;-69
2021/12/01 17:44:54;;;;;;;0.90;0.70;;;7.60;99.90;;;;;;10460789;28;20230;-67
2021/12/01 17:49:55;;;;;;;1.30;0.70;;;7.70;99.90;;;;;;10427378;28;20253;-67
2021/12/01 17:54:56;;;;;;;0.93;0.60;;;7.70;99.90;;;;;;10426998;28;20217;-67
2021/12/01 17:59:59;;;;;;;2.70;1.17;;;7.80;99.90;;;;;;10415277;28;20216;-67
2021/12/01 18:05:00;;;;;;;0.83;0.80;;;7.70;99.90;;;;;;10428316;28;20293;-67
2021/12/01 18:10:01;;;;;;;1.70;1.30;;;7.70;99.90;;;;;;10451120;28;20763;-69
2021/12/01 18:15:05;;;;;;;1.97;1.07;;;7.60;99.90;;;;;;10440877;28;20742;-68
2021/12/01 18:20:11;;;;;;;1.70;1.00;;;7.50;99.90;;;;;;10430292;28;20679;-69
2021/12/01 18:25:12;;;;;;;1.23;0.97;;;7.50;99.90;;;;;;10408367;28;20264;-69
2021/12/01 18:30:13;;;;;;;1.33;0.77;;;7.40;99.90;;;;;;10427936;28;20216;-69
2021/12/01 18:35:15;;;;;;;1.13;0.60;;;7.30;99.90;;;;;;10426979;28;20176;-67
2021/12/01 18:40:18;;;;;;;0.90;0.70;;;7.30;99.90;;;;;;10431530;28;20671;-67
2021/12/01 18:45:18;;;;;;;1.67;1.10;;;7.30;99.90;;;;;;10427712;28;20192;-68
2021/12/01 18:50:19;;;;;;;1.03;0.93;;;7.40;99.90;;;;;;10422367;28;20243;-69
2021/12/01 18:55:20;;;;;;;1.90;0.83;;;7.50;99.90;;;;;;10418299;28;20185;-68
2021/12/01 19:00:22;;;;;;;1.17;0.90;;;7.60;99.90;;;;;;10428860;28;20200;-66
2021/12/01 19:05:24;;;;;;;2.27;1.00;;;7.60;99.90;;;;;;10421047;28;20917;-68
2021/12/01 19:10:27;;;;;;;0.70;0.63;;;7.60;99.90;;;;;;10434628;28;20319;-69
2021/12/01 19:15:28;;;;;;;1.03;0.93;;;7.60;99.90;;;;;;10430598;28;20220;-68
2021/12/01 19:20:29;;;;;;;1.90;1.30;;;7.60;99.90;;;;;;10424361;28;20212;-68
2021/12/01 19:26:08;;;;;;;1.20;1.10;;;7.60;99.90;;;;;;10431910;28;20278;-66
2021/12/01 19:31:09;;;;;;;1.57;1.30;;;7.70;99.90;;;;;;10438673;28;20589;-67
2021/12/01 19:36:10;;;;;;;2.03;1.43;;;7.70;99.90;;;;;;10426861;28;20197;-68
2021/12/01 19:41:11;;;;;;;2.90;1.40;;;7.80;99.90;;;;;;10819291;23;20311;-70
2021/12/01 19:46:12;;;;;;;2.60;2.20;;;7.70;99.90;;;;;;10328087;28;20282;-71
2021/12/01 19:51:15;;;;;;;4.00;1.57;;;7.70;99.90;;;;;;10355871;28;20230;-70
2021/12/01 19:56:21;;;;;;;2.77;2.00;;;7.80;99.90;;;;;;10365672;28;20221;-70
2021/12/01 20:01:22;;;;;;;2.20;2.00;;;7.90;99.90;;;;;;10368243;28;20251;-69
2021/12/01 20:06:25;;;;;;;2.40;1.40;;;7.90;99.90;;;;;;10359445;28;20229;-71
2021/12/01 20:11:25;;;;;;;4.87;2.07;;;8.00;99.90;;;;;;10368087;28;20235;-71
2021/12/01 20:16:28;;;;;;;2.00;1.17;;;8.00;99.90;;;;;;10369596;28;20714;-72
2021/12/01 20:21:28;;;;;;;1.70;1.30;;;8.10;99.90;;;;;;10359120;28;20253;-70
2021/12/01 20:26:29;;;;;;;1.87;1.20;;;8.10;99.90;;;;;;10365606;28;20265;-69
2021/12/01 20:31:32;;;;;;;2.00;1.53;;;8.00;99.90;;;;;;10365152;28;20238;-69
2021/12/01 20:36:35;;;;;;;3.97;1.60;;;7.80;99.90;;;;;;10363872;28;20688;-71
2021/12/01 20:41:39;;;;;;;5.50;1.90;;;7.60;99.90;;;;;;10367238;28;20249;-70
2021/12/01 21:02:20;;;;;;;2.70;1.90;;;7.10;99.90;;;;;;10369603;28;20224;-69
2021/12/01 21:07:23;;;;;;;3.03;2.33;;;7.10;99.90;;;;;;10355904;28;20232;-69
2021/12/01 21:12:26;;;;;;;4.43;3.03;;;7.00;99.90;;;;;;10359049;28;20229;-69
2021/12/01 21:17:26;;;;;;;3.40;2.47;;;6.90;99.90;;;;;;10361978;28;20810;-71
2021/12/01 21:22:28;;;;;;;2.70;1.97;;;6.90;99.90;;;;;;10363383;28;20245;-70
2021/12/01 21:27:30;;;;;;;2.53;1.80;;;6.90;99.90;;;;;;10362354;28;20308;-71
2021/12/01 21:32:31;;;;;;;3.70;2.50;;;6.80;99.90;;;;;;10363196;28;20237;-72
2021/12/01 21:37:34;;;;;;;3.30;1.93;;;6.70;99.90;;;;;;10357214;28;20588;-71
2021/12/01 21:42:37;;;;;;;2.93;1.60;;;6.60;99.90;;;;;;10363708;28;20259;-69
2021/12/01 21:47:37;;;;;;;2.87;1.93;;;6.50;99.90;;;;;;10349278;28;20253;-70
2021/12/01 21:52:40;;;;;;;3.00;1.37;;;6.40;99.90;;;;;;10363009;28;20236;-71
2021/12/01 21:57:42;;;;;;;3.67;2.40;;;6.40;99.90;;;;;;10375080;28;20225;-70
2021/12/01 22:02:46;;;;;;;2.40;1.70;;;6.40;99.90;;;;;;10378900;28;20217;-70
2021/12/01 22:07:47;;;;;;;4.57;1.80;;;6.50;99.90;;;;;;10363882;28;20221;-70
2021/12/01 22:12:52;;;;;;;2.13;1.30;;;6.60;99.90;;;;;;10362664;28;20217;-71
2021/12/01 22:17:54;;;;;;;3.33;1.47;;;6.80;99.90;;;;;;10361176;28;20218;-70
2021/12/01 22:23:05;;;;;;;2.33;1.13;;;6.90;99.90;;;;;;10359998;28;20312;-71
2021/12/01 22:28:07;;;;;;;1.93;1.20;;;7.00;99.90;;;;;;10378826;28;20248;-69
2021/12/01 22:33:09;;;;;;;2.47;1.60;;;7.10;99.90;;;;;;10359602;28;20225;-70
2021/12/01 22:38:10;;;;;;;1.53;1.43;;;7.10;99.90;;;;;;10360881;28;20312;-71
2021/12/01 22:43:12;;;;;;;3.57;1.30;;;7.10;99.90;;;;;;10356001;28;20263;-69
2021/12/01 22:48:14;;;;;;;2.63;0.90;;;7.20;99.90;;;;;;10346857;28;20255;-69
2021/12/01 22:53:15;;;;;;;1.90;1.60;;;7.20;99.90;;;;;;10376603;28;20225;-70
2021/12/01 22:58:16;;;;;;;3.77;1.23;;;7.20;99.90;;;;;;10351120;28;20279;-70
2021/12/01 23:03:23;;;;;;;1.47;1.27;;;7.20;99.90;;;;;;10353414;28;20291;-69
2021/12/01 23:08:25;;;;;;;2.87;1.57;;;7.20;99.90;;;;;;10354879;28;20222;-70
2021/12/01 23:13:28;;;;;;;3.77;1.57;;;7.20;99.90;;;;;;10373665;28;20221;-70
2021/12/01 23:18:28;;;;;;;3.03;1.40;;;7.20;99.90;;;;;;10361788;28;20225;-70
2021/12/01 23:28:36;;;;;;;2.50;1.37;;;7.20;99.90;;;;;;10354145;28;20217;-71
2021/12/01 23:33:44;;;;;;;1.90;1.30;;;7.20;99.90;;;;;;10360076;28;20570;-71
2021/12/01 23:38:46;;;;;;;3.17;1.60;;;7.20;99.90;;;;;;10359734;28;20221;-70
2021/12/01 23:43:48;;;;;;;3.47;1.77;;;7.20;99.90;;;;;;10371223;28;20969;-70
2021/12/01 23:54:11;;;;;;;4.03;1.50;;;7.20;99.90;;;;;;10365791;28;20217;-70
2021/12/01 23:59:15;;;;;;;2.40;1.53;;;7.20;99.90;;;;;;10352646;28;20217;-70
